Huvudsida
METAR-TAF:

METAR-TAF

Flygplatser :

Arvidsjaur flygplats

Arvidsjaur, Sverige

latitud: 65-35-25N, longitud: 019-16-55E, höjd: 379 m

Aktuellt väderrapport

Denna rapport gjordes för 17 minuter sedan, klockan 22:50 UTC
Vind 2 kt från nordväst
Temperatur -17°C
Fuktighet 84%
Tryck 1014 hPa
Sikt 10 km eller mer

METAR: ESNX 232250Z AUTO 31002KT 9999 OVC098/// M17/M19 Q1014

Tid: 00:07 (23:07 UTC)

Väderprognos

Denna rapport gjordes för 4 timmar och 42 minuter sedan, klockan 18:25 UTC
Prognos gäller från 23 kl. 18 UTC till 23 kl. 21 UTC
Vind 2 kt varierande vindriktning
Sikt: 8000 m
Spridda moln på en höjd av 400 ft
Mulet på en höjd av 1500 ft
lätt snö
Sannolikhet 40%
från 23 kl. 18 UTC till 23 kl. 21 UTC
Sikt: 4000 m
Brutna moln på en höjd av 400 ft

TAF: ESNX 231825Z 2318/2321 VRB02KT 8000 -SN SCT004 OVC015 PROB40 2318/2321 4000 BKN004

Aktuella väderrapporter och prognoser från 4000 flygplatser (METAR- och TAF-rapporter).

De tillgängliga stationerna syns som gula och röda prickar på kartan.

För musen över prickarna för att se namnen på stationerna.

Klicka sedan för att få väderrapporter och prognoser.

För att ändra kartan: Klicka på de gröna knapparna med ett svart kors på för att zooma in; den gröna knappen med ett streck på för att zooma ut; eller på de gröna pilarna för angränsande kartor.


METAR-TAF: